sensor_id;sensor_type;location;lat;lon;timestamp;pressure;altitude;pressure_sealevel;temperature;humidity
48555;BME280;34336;48.270;16.716;2023-06-22T00:00:29;109325.25;;;18.16;100.00
48555;BME280;34336;48.270;16.716;2023-06-22T00:02:57;109325.25;;;18.16;100.00
48555;BME280;34336;48.270;16.716;2023-06-22T00:05:25;109325.25;;;18.16;100.00
48555;BME280;34336;48.270;16.716;2023-06-22T00:07:53;109325.25;;;18.16;100.00
48555;BME280;34336;48.270;16.716;2023-06-22T00:10:21;109325.25;;;18.16;100.00
48555;BME280;34336;48.270;16.716;2023-06-22T00:12:50;109325.25;;;18.16;100.00
48555;BME280;34336;48.270;16.716;2023-06-22T00:15:18;109325.25;;;18.16;100.00
48555;BME280;34336;48.270;16.716;2023-06-22T00:17:48;109325.25;;;18.16;100.00
48555;BME280;34336;48.270;16.716;2023-06-22T00:20:16;109325.25;;;18.16;100.00
48555;BME280;34336;48.270;16.716;2023-06-22T00:22:45;109325.25;;;18.16;100.00
48555;BME280;34336;48.270;16.716;2023-06-22T00:25:13;109325.25;;;18.16;100.00
48555;BME280;34336;48.270;16.716;2023-06-22T00:27:41;109325.25;;;18.16;100.00
48555;BME280;34336;48.270;16.716;2023-06-22T00:30:08;109325.25;;;18.16;100.00
48555;BME280;34336;48.270;16.716;2023-06-22T00:32:39;109325.25;;;18.16;100.00
48555;BME280;34336;48.270;16.716;2023-06-22T00:35:07;109325.25;;;18.16;100.00
48555;BME280;34336;48.270;16.716;2023-06-22T00:37:35;109325.25;;;18.16;100.00
48555;BME280;34336;48.270;16.716;2023-06-22T00:40:03;109325.25;;;18.16;100.00
48555;BME280;34336;48.270;16.716;2023-06-22T00:42:32;109325.25;;;18.16;100.00
48555;BME280;34336;48.270;16.716;2023-06-22T00:45:01;109325.25;;;18.16;100.00
48555;BME280;34336;48.270;16.716;2023-06-22T00:47:29;109325.25;;;18.16;100.00
48555;BME280;34336;48.270;16.716;2023-06-22T00:49:56;109325.25;;;18.16;100.00
48555;BME280;34336;48.270;16.716;2023-06-22T00:52:24;109325.25;;;18.16;100.00
48555;BME280;34336;48.270;16.716;2023-06-22T00:54:56;109325.25;;;18.16;100.00
48555;BME280;34336;48.270;16.716;2023-06-22T00:57:25;109325.25;;;18.16;100.00
48555;BME280;34336;48.270;16.716;2023-06-22T00:59:55;109325.25;;;18.16;100.00
48555;BME280;34336;48.270;16.716;2023-06-22T01:02:23;109325.25;;;18.16;100.00
48555;BME280;34336;48.270;16.716;2023-06-22T01:04:51;109325.25;;;18.16;100.00
48555;BME280;34336;48.270;16.716;2023-06-22T01:07:27;109325.25;;;18.16;100.00
48555;BME280;34336;48.270;16.716;2023-06-22T01:12:51;109325.25;;;18.16;100.00
48555;BME280;34336;48.270;16.716;2023-06-22T01:17:53;109325.25;;;18.16;100.00
48555;BME280;34336;48.270;16.716;2023-06-22T01:20:24;109325.25;;;18.16;100.00
48555;BME280;34336;48.270;16.716;2023-06-22T01:28:48;109325.25;;;18.16;100.00
48555;BME280;34336;48.270;16.716;2023-06-22T01:31:18;109325.25;;;18.16;100.00
48555;BME280;34336;48.270;16.716;2023-06-22T01:33:49;109325.25;;;18.16;100.00
48555;BME280;34336;48.270;16.716;2023-06-22T01:36:18;109325.25;;;18.16;100.00
48555;BME280;34336;48.270;16.716;2023-06-22T01:38:47;109325.25;;;18.16;100.00
48555;BME280;34336;48.270;16.716;2023-06-22T01:41:16;109325.25;;;18.16;100.00
48555;BME280;34336;48.270;16.716;2023-06-22T01:43:46;109325.25;;;18.16;100.00
48555;BME280;34336;48.270;16.716;2023-06-22T01:46:14;109325.25;;;18.16;100.00
48555;BME280;34336;48.270;16.716;2023-06-22T01:48:42;109325.25;;;18.16;100.00
48555;BME280;34336;48.270;16.716;2023-06-22T01:51:11;109325.25;;;18.16;100.00
48555;BME280;34336;48.270;16.716;2023-06-22T01:53:38;109325.25;;;18.16;100.00
48555;BME280;34336;48.270;16.716;2023-06-22T01:56:05;109325.25;;;18.16;100.00
48555;BME280;34336;48.270;16.716;2023-06-22T01:58:36;109325.25;;;18.16;100.00
48555;BME280;34336;48.270;16.716;2023-06-22T02:01:14;109325.25;;;18.16;100.00
48555;BME280;34336;48.270;16.716;2023-06-22T02:03:46;109325.25;;;18.16;100.00
48555;BME280;34336;48.270;16.716;2023-06-22T02:06:21;109325.25;;;18.16;100.00
48555;BME280;34336;48.270;16.716;2023-06-22T02:08:53;109325.25;;;18.16;100.00
48555;BME280;34336;48.270;16.716;2023-06-22T02:11:22;109325.25;;;18.16;100.00
48555;BME280;34336;48.270;16.716;2023-06-22T02:13:50;109325.25;;;18.16;100.00
48555;BME280;34336;48.270;16.716;2023-06-22T02:16:18;109325.25;;;18.16;100.00
48555;BME280;34336;48.270;16.716;2023-06-22T02:18:50;109325.25;;;18.16;100.00
48555;BME280;34336;48.270;16.716;2023-06-22T02:21:21;109325.25;;;18.16;100.00
48555;BME280;34336;48.270;16.716;2023-06-22T02:23:49;109325.25;;;18.16;100.00
48555;BME280;34336;48.270;16.716;2023-06-22T02:26:17;109325.25;;;18.16;100.00
48555;BME280;34336;48.270;16.716;2023-06-22T02:28:45;109325.25;;;18.16;100.00
48555;BME280;34336;48.270;16.716;2023-06-22T02:31:16;109325.25;;;18.16;100.00
48555;BME280;34336;48.270;16.716;2023-06-22T02:33:44;109325.25;;;18.16;100.00
48555;BME280;34336;48.270;16.716;2023-06-22T02:36:13;109325.25;;;18.16;100.00
48555;BME280;34336;48.270;16.716;2023-06-22T02:38:41;109325.25;;;18.16;100.00
48555;BME280;34336;48.270;16.716;2023-06-22T02:41:15;109325.25;;;18.16;100.00
48555;BME280;34336;48.270;16.716;2023-06-22T02:43:47;109325.25;;;18.16;100.00
48555;BME280;34336;48.270;16.716;2023-06-22T02:46:18;109325.25;;;18.16;100.00
48555;BME280;34336;48.270;16.716;2023-06-22T02:48:48;109325.25;;;18.16;100.00
48555;BME280;34336;48.270;16.716;2023-06-22T02:51:16;109325.25;;;18.16;100.00
48555;BME280;34336;48.270;16.716;2023-06-22T02:53:44;109325.25;;;18.16;100.00
48555;BME280;34336;48.270;16.716;2023-06-22T02:56:14;109325.25;;;18.16;100.00
48555;BME280;34336;48.270;16.716;2023-06-22T02:58:43;109325.25;;;18.16;100.00
48555;BME280;34336;48.270;16.716;2023-06-22T03:01:11;109325.25;;;18.16;100.00
48555;BME280;34336;48.270;16.716;2023-06-22T03:03:45;109325.25;;;18.16;100.00
48555;BME280;34336;48.270;16.716;2023-06-22T03:06:13;109325.25;;;18.16;100.00
48555;BME280;34336;48.270;16.716;2023-06-22T03:08:41;109325.25;;;18.16;100.00
48555;BME280;34336;48.270;16.716;2023-06-22T03:11:11;109325.25;;;18.16;100.00
48555;BME280;34336;48.270;16.716;2023-06-22T03:13:42;109325.25;;;18.16;100.00
48555;BME280;34336;48.270;16.716;2023-06-22T03:16:11;109325.25;;;18.16;100.00
48555;BME280;34336;48.270;16.716;2023-06-22T03:18:48;109325.25;;;18.16;100.00
48555;BME280;34336;48.270;16.716;2023-06-22T03:21:22;109325.25;;;18.16;100.00
48555;BME280;34336;48.270;16.716;2023-06-22T03:24:01;109325.25;;;18.16;100.00
48555;BME280;34336;48.270;16.716;2023-06-22T03:26:30;109325.25;;;18.16;100.00
48555;BME280;34336;48.270;16.716;2023-06-22T03:28:58;109325.25;;;18.16;100.00
48555;BME280;34336;48.270;16.716;2023-06-22T03:31:27;109325.25;;;18.16;100.00
48555;BME280;34336;48.270;16.716;2023-06-22T03:33:56;109325.25;;;18.16;100.00
48555;BME280;34336;48.270;16.716;2023-06-22T03:36:24;109325.25;;;18.16;99.00
48555;BME280;34336;48.270;16.716;2023-06-22T03:38:52;109325.25;;;18.16;97.54
48555;BME280;34336;48.270;16.716;2023-06-22T03:41:21;109325.25;;;18.16;95.17
48555;BME280;34336;48.270;16.716;2023-06-22T03:43:50;109325.25;;;18.16;91.11
48555;BME280;34336;48.270;16.716;2023-06-22T03:46:18;109325.25;;;18.16;88.17
48555;BME280;34336;48.270;16.716;2023-06-22T03:48:51;109325.25;;;18.16;86.86
48555;BME280;34336;48.270;16.716;2023-06-22T03:51:20;109325.25;;;18.16;83.79
48555;BME280;34336;48.270;16.716;2023-06-22T03:53:51;109325.25;;;18.16;81.49
48555;BME280;34336;48.270;16.716;2023-06-22T03:56:21;109325.25;;;18.16;79.19
48555;BME280;34336;48.270;16.716;2023-06-22T03:58:55;109325.25;;;18.16;76.22
48555;BME280;34336;48.270;16.716;2023-06-22T04:01:39;109325.25;;;18.16;73.35
48555;BME280;34336;48.270;16.716;2023-06-22T04:04:06;109325.25;;;18.16;70.15
48555;BME280;34336;48.270;16.716;2023-06-22T04:06:34;109325.25;;;18.16;66.55
48555;BME280;34336;48.270;16.716;2023-06-22T04:09:02;109325.25;;;18.16;65.44
48555;BME280;34336;48.270;16.716;2023-06-22T04:11:30;109325.25;;;18.16;65.57
48555;BME280;34336;48.270;16.716;2023-06-22T04:13:59;109325.25;;;18.16;63.61
48555;BME280;34336;48.270;16.716;2023-06-22T04:16:27;109325.25;;;18.16;62.29
48555;BME280;34336;48.270;16.716;2023-06-22T04:18:55;109325.25;;;18.16;60.20
48555;BME280;34336;48.270;16.716;2023-06-22T04:21:31;109325.25;;;18.16;59.44
48555;BME280;34336;48.270;16.716;2023-06-22T04:23:58;109325.25;;;18.16;55.56
48555;BME280;34336;48.270;16.716;2023-06-22T04:26:26;109325.25;;;18.16;57.52
48555;BME280;34336;48.270;16.716;2023-06-22T04:28:53;109325.25;;;18.16;52.12
48555;BME280;34336;48.270;16.716;2023-06-22T04:31:22;109325.25;;;18.16;50.87
48555;BME280;34336;48.270;16.716;2023-06-22T04:34:02;109325.25;;;18.16;51.58
48555;BME280;34336;48.270;16.716;2023-06-22T04:36:37;109325.25;;;18.16;53.15
48555;BME280;34336;48.270;16.716;2023-06-22T04:39:06;109325.25;;;18.16;51.83
48555;BME280;34336;48.270;16.716;2023-06-22T04:41:34;109325.25;;;18.16;53.54
48555;BME280;34336;48.270;16.716;2023-06-22T04:44:12;109325.25;;;18.16;51.20
48555;BME280;34336;48.270;16.716;2023-06-22T04:46:41;109325.25;;;18.16;51.38
48555;BME280;34336;48.270;16.716;2023-06-22T04:49:09;109325.25;;;18.16;51.56
48555;BME280;34336;48.270;16.716;2023-06-22T04:51:39;109325.25;;;18.16;48.42
48555;BME280;34336;48.270;16.716;2023-06-22T04:54:08;109325.25;;;18.16;47.69
48555;BME280;34336;48.270;16.716;2023-06-22T04:56:36;109325.25;;;18.16;48.65
48555;BME280;34336;48.270;16.716;2023-06-22T04:59:04;109325.25;;;18.16;49.88
48555;BME280;34336;48.270;16.716;2023-06-22T05:01:32;109325.25;;;18.16;49.95
48555;BME280;34336;48.270;16.716;2023-06-22T05:04:00;109325.25;;;18.16;49.40
48555;BME280;34336;48.270;16.716;2023-06-22T05:06:29;109325.25;;;18.16;51.74
48555;BME280;34336;48.270;16.716;2023-06-22T05:08:57;109325.25;;;18.16;50.08
48555;BME280;34336;48.270;16.716;2023-06-22T05:11:26;109325.25;;;18.16;46.97
48555;BME280;34336;48.270;16.716;2023-06-22T05:13:54;109325.25;;;18.16;46.63
48555;BME280;34336;48.270;16.716;2023-06-22T05:16:22;109325.25;;;18.16;42.71
48555;BME280;34336;48.270;16.716;2023-06-22T05:18:56;109325.25;;;18.16;47.49
48555;BME280;34336;48.270;16.716;2023-06-22T05:21:25;109325.25;;;18.16;47.30
48555;BME280;34336;48.270;16.716;2023-06-22T05:23:53;109325.25;;;18.16;46.50
48555;BME280;34336;48.270;16.716;2023-06-22T05:26:21;109325.25;;;18.16;51.51
48555;BME280;34336;48.270;16.716;2023-06-22T05:28:51;109325.25;;;18.16;43.91
48555;BME280;34336;48.270;16.716;2023-06-22T05:31:20;109325.25;;;18.16;47.65
48555;BME280;34336;48.270;16.716;2023-06-22T05:33:55;109325.25;;;18.16;45.31
48555;BME280;34336;48.270;16.716;2023-06-22T05:36:27;109325.25;;;18.16;43.14
48555;BME280;34336;48.270;16.716;2023-06-22T05:38:58;109325.25;;;18.16;41.22
48555;BME280;34336;48.270;16.716;2023-06-22T05:41:31;109325.25;;;18.16;43.84
48555;BME280;34336;48.270;16.716;2023-06-22T05:44:01;109325.25;;;18.16;44.28
48555;BME280;34336;48.270;16.716;2023-06-22T05:46:36;109325.25;;;18.16;44.57
48555;BME280;34336;48.270;16.716;2023-06-22T05:49:03;109325.25;;;18.16;44.31
48555;BME280;34336;48.270;16.716;2023-06-22T05:51:30;109325.25;;;18.16;44.44
48555;BME280;34336;48.270;16.716;2023-06-22T05:53:58;109325.25;;;18.16;48.00
48555;BME280;34336;48.270;16.716;2023-06-22T05:56:25;109325.25;;;18.16;46.27
48555;BME280;34336;48.270;16.716;2023-06-22T05:58:52;109325.25;;;18.16;47.34
48555;BME280;34336;48.270;16.716;2023-06-22T06:01:20;109325.25;;;18.16;49.58
48555;BME280;34336;48.270;16.716;2023-06-22T06:03:47;109325.25;;;18.16;47.74
48555;BME280;34336;48.270;16.716;2023-06-22T06:06:16;109325.25;;;18.16;48.13
48555;BME280;34336;48.270;16.716;2023-06-22T06:08:44;109325.25;;;18.16;44.99
48555;BME280;34336;48.270;16.716;2023-06-22T06:11:11;109325.25;;;18.16;47.08
48555;BME280;34336;48.270;16.716;2023-06-22T06:13:38;109325.25;;;18.16;47.39
48555;BME280;34336;48.270;16.716;2023-06-22T06:16:06;109325.25;;;18.16;47.79
48555;BME280;34336;48.270;16.716;2023-06-22T06:18:32;109325.25;;;18.16;46.20
48555;BME280;34336;48.270;16.716;2023-06-22T06:20:59;109325.25;;;18.16;43.33
48555;BME280;34336;48.270;16.716;2023-06-22T06:23:27;109325.25;;;18.16;44.07
48555;BME280;34336;48.270;16.716;2023-06-22T06:25:54;109325.25;;;18.16;44.20
48555;BME280;34336;48.270;16.716;2023-06-22T06:28:21;109325.25;;;18.16;44.36
48555;BME280;34336;48.270;16.716;2023-06-22T06:30:48;109325.25;;;18.16;44.07
48555;BME280;34336;48.270;16.716;2023-06-22T06:33:16;109325.25;;;18.16;43.48
48555;BME280;34336;48.270;16.716;2023-06-22T06:35:42;109325.25;;;18.16;43.62
48555;BME280;34336;48.270;16.716;2023-06-22T06:38:10;109325.25;;;18.16;43.17
48555;BME280;34336;48.270;16.716;2023-06-22T06:40:37;109325.25;;;18.16;41.00
48555;BME280;34336;48.270;16.716;2023-06-22T06:43:04;109325.25;;;18.16;42.46
48555;BME280;34336;48.270;16.716;2023-06-22T06:45:32;109325.25;;;18.16;43.26
48555;BME280;34336;48.270;16.716;2023-06-22T06:48:01;109325.25;;;18.16;42.70
48555;BME280;34336;48.270;16.716;2023-06-22T06:50:28;109325.25;;;18.16;43.41
48555;BME280;34336;48.270;16.716;2023-06-22T06:52:57;109325.25;;;18.16;43.27
48555;BME280;34336;48.270;16.716;2023-06-22T06:55:26;109325.25;;;18.16;41.35
48555;BME280;34336;48.270;16.716;2023-06-22T06:57:53;109325.25;;;18.16;42.80
48555;BME280;34336;48.270;16.716;2023-06-22T07:00:20;109325.25;;;18.16;42.69
48555;BME280;34336;48.270;16.716;2023-06-22T07:02:48;109325.25;;;18.16;43.80
48555;BME280;34336;48.270;16.716;2023-06-22T07:05:16;109325.25;;;18.16;43.99
48555;BME280;34336;48.270;16.716;2023-06-22T07:07:43;109325.25;;;18.16;42.41
48555;BME280;34336;48.270;16.716;2023-06-22T07:10:10;109325.25;;;18.16;42.91
48555;BME280;34336;48.270;16.716;2023-06-22T07:12:38;109325.25;;;18.16;42.59
48555;BME280;34336;48.270;16.716;2023-06-22T07:15:06;109325.25;;;18.16;44.18
48555;BME280;34336;48.270;16.716;2023-06-22T07:17:37;109325.25;;;18.16;43.47
48555;BME280;34336;48.270;16.716;2023-06-22T07:20:05;109325.25;;;18.16;43.45
48555;BME280;34336;48.270;16.716;2023-06-22T07:22:36;109325.25;;;18.16;43.15
48555;BME280;34336;48.270;16.716;2023-06-22T07:25:04;109325.25;;;18.16;43.19
48555;BME280;34336;48.270;16.716;2023-06-22T07:27:36;109325.25;;;18.16;42.48
48555;BME280;34336;48.270;16.716;2023-06-22T07:30:04;109325.25;;;18.16;43.27
48555;BME280;34336;48.270;16.716;2023-06-22T07:32:32;109325.25;;;18.16;41.24
48555;BME280;34336;48.270;16.716;2023-06-22T07:34:58;109325.25;;;18.16;39.88
48555;BME280;34336;48.270;16.716;2023-06-22T07:37:25;109325.25;;;18.16;41.27
48555;BME280;34336;48.270;16.716;2023-06-22T07:39:54;109325.25;;;18.16;43.04
48555;BME280;34336;48.270;16.716;2023-06-22T07:42:25;109325.25;;;18.16;42.80
48555;BME280;34336;48.270;16.716;2023-06-22T07:44:53;109325.25;;;18.16;44.04
48555;BME280;34336;48.270;16.716;2023-06-22T07:47:21;109325.25;;;18.16;44.99
48555;BME280;34336;48.270;16.716;2023-06-22T07:49:52;109325.25;;;18.16;42.48
48555;BME280;34336;48.270;16.716;2023-06-22T07:52:21;109325.25;;;18.16;43.56
48555;BME280;34336;48.270;16.716;2023-06-22T07:54:48;109325.25;;;18.16;43.39
48555;BME280;34336;48.270;16.716;2023-06-22T07:57:15;109325.25;;;18.16;43.57
48555;BME280;34336;48.270;16.716;2023-06-22T07:59:43;109325.25;;;18.16;45.06
48555;BME280;34336;48.270;16.716;2023-06-22T08:02:11;109325.25;;;18.16;47.13
48555;BME280;34336;48.270;16.716;2023-06-22T08:04:39;109325.25;;;18.16;46.55
48555;BME280;34336;48.270;16.716;2023-06-22T08:07:07;109325.25;;;18.16;46.22
48555;BME280;34336;48.270;16.716;2023-06-22T08:09:35;109325.25;;;18.16;45.02
48555;BME280;34336;48.270;16.716;2023-06-22T08:12:02;109325.25;;;18.16;46.88
48555;BME280;34336;48.270;16.716;2023-06-22T08:14:30;109325.25;;;18.16;46.76
48555;BME280;34336;48.270;16.716;2023-06-22T08:16:59;109325.25;;;18.16;44.91
48555;BME280;34336;48.270;16.716;2023-06-22T08:19:26;109325.25;;;18.16;46.89
48555;BME280;34336;48.270;16.716;2023-06-22T08:21:55;109325.25;;;18.16;47.07
48555;BME280;34336;48.270;16.716;2023-06-22T08:24:22;109325.25;;;18.16;45.25
48555;BME280;34336;48.270;16.716;2023-06-22T08:26:51;109325.25;;;18.16;45.34
48555;BME280;34336;48.270;16.716;2023-06-22T08:29:19;109325.25;;;18.16;44.91
48555;BME280;34336;48.270;16.716;2023-06-22T08:31:46;109325.25;;;18.16;43.83
48555;BME280;34336;48.270;16.716;2023-06-22T08:34:15;109325.25;;;18.16;43.65
48555;BME280;34336;48.270;16.716;2023-06-22T08:36:45;109325.25;;;18.16;42.15
48555;BME280;34336;48.270;16.716;2023-06-22T08:39:20;109325.25;;;18.16;43.04
48555;BME280;34336;48.270;16.716;2023-06-22T08:41:49;109325.25;;;18.16;45.25
48555;BME280;34336;48.270;16.716;2023-06-22T08:44:17;109325.25;;;18.16;44.40
48555;BME280;34336;48.270;16.716;2023-06-22T08:46:46;109325.25;;;18.16;44.89
48555;BME280;34336;48.270;16.716;2023-06-22T08:49:17;109325.25;;;18.16;44.57
48555;BME280;34336;48.270;16.716;2023-06-22T08:51:46;109325.25;;;18.16;44.51
48555;BME280;34336;48.270;16.716;2023-06-22T08:54:16;109325.25;;;18.16;44.04
48555;BME280;34336;48.270;16.716;2023-06-22T08:56:44;109325.25;;;18.16;43.72
48555;BME280;34336;48.270;16.716;2023-06-22T08:59:11;109325.25;;;18.16;42.85
48555;BME280;34336;48.270;16.716;2023-06-22T09:01:39;109325.25;;;18.16;42.95
48555;BME280;34336;48.270;16.716;2023-06-22T09:04:06;109325.25;;;18.16;41.58
48555;BME280;34336;48.270;16.716;2023-06-22T09:06:36;109325.25;;;18.16;43.01
48555;BME280;34336;48.270;16.716;2023-06-22T09:09:08;109325.25;;;18.16;42.33
48555;BME280;34336;48.270;16.716;2023-06-22T09:11:35;109325.25;;;18.16;43.54
48555;BME280;34336;48.270;16.716;2023-06-22T09:14:04;109325.25;;;18.16;43.12
48555;BME280;34336;48.270;16.716;2023-06-22T09:16:31;109325.25;;;18.16;42.48
48555;BME280;34336;48.270;16.716;2023-06-22T09:18:58;109325.25;;;18.16;43.84
48555;BME280;34336;48.270;16.716;2023-06-22T09:21:25;109325.25;;;18.16;42.95
48555;BME280;34336;48.270;16.716;2023-06-22T09:23:53;109325.25;;;18.16;44.85
48555;BME280;34336;48.270;16.716;2023-06-22T09:26:20;109325.25;;;18.16;42.54
48555;BME280;34336;48.270;16.716;2023-06-22T09:28:47;109325.25;;;18.16;44.33
48555;BME280;34336;48.270;16.716;2023-06-22T09:31:15;109325.25;;;18.16;42.22
48555;BME280;34336;48.270;16.716;2023-06-22T09:33:43;109325.25;;;18.16;42.15
48555;BME280;34336;48.270;16.716;2023-06-22T09:36:10;109325.25;;;18.16;41.46
48555;BME280;34336;48.270;16.716;2023-06-22T09:38:37;109325.25;;;18.16;40.90
48555;BME280;34336;48.270;16.716;2023-06-22T09:41:05;109325.25;;;18.16;40.59
48555;BME280;34336;48.270;16.716;2023-06-22T09:43:35;109325.25;;;18.16;41.36
48555;BME280;34336;48.270;16.716;2023-06-22T09:46:03;109325.25;;;18.16;41.42
48555;BME280;34336;48.270;16.716;2023-06-22T09:48:30;109325.25;;;18.16;43.04
48555;BME280;34336;48.270;16.716;2023-06-22T09:50:57;109325.25;;;18.16;42.74
48555;BME280;34336;48.270;16.716;2023-06-22T09:53:24;109325.25;;;18.16;42.19
48555;BME280;34336;48.270;16.716;2023-06-22T09:55:51;109325.25;;;18.16;43.55
48555;BME280;34336;48.270;16.716;2023-06-22T09:58:20;109325.25;;;18.16;42.46
48555;BME280;34336;48.270;16.716;2023-06-22T10:00:47;109325.25;;;18.16;42.25
48555;BME280;34336;48.270;16.716;2023-06-22T10:03:14;109325.25;;;18.16;42.05
48555;BME280;34336;48.270;16.716;2023-06-22T10:05:41;109325.25;;;18.16;42.66
48555;BME280;34336;48.270;16.716;2023-06-22T10:08:12;109325.25;;;18.16;42.75
48555;BME280;34336;48.270;16.716;2023-06-22T10:10:39;109325.25;;;18.16;42.80
48555;BME280;34336;48.270;16.716;2023-06-22T10:13:10;109325.25;;;18.16;42.07
48555;BME280;34336;48.270;16.716;2023-06-22T10:15:37;109325.25;;;18.16;42.50
48555;BME280;34336;48.270;16.716;2023-06-22T10:18:07;109325.25;;;18.16;43.18
48555;BME280;34336;48.270;16.716;2023-06-22T10:20:35;109325.25;;;18.16;42.40
48555;BME280;34336;48.270;16.716;2023-06-22T10:23:03;109325.25;;;18.16;41.16
48555;BME280;34336;48.270;16.716;2023-06-22T10:25:30;109325.25;;;18.16;40.16
48555;BME280;34336;48.270;16.716;2023-06-22T10:27:58;109325.25;;;18.16;41.78
48555;BME280;34336;48.270;16.716;2023-06-22T10:30:26;109325.25;;;18.16;39.63
48555;BME280;34336;48.270;16.716;2023-06-22T10:32:54;109325.25;;;18.16;41.96
48555;BME280;34336;48.270;16.716;2023-06-22T10:35:22;109325.25;;;18.16;41.69
48555;BME280;34336;48.270;16.716;2023-06-22T10:37:50;109325.25;;;18.16;39.05
48555;BME280;34336;48.270;16.716;2023-06-22T10:40:18;109325.25;;;18.16;39.36
48555;BME280;34336;48.270;16.716;2023-06-22T10:42:45;109325.25;;;18.16;38.75
48555;BME280;34336;48.270;16.716;2023-06-22T10:45:13;109325.25;;;18.16;40.96
48555;BME280;34336;48.270;16.716;2023-06-22T10:47:41;109325.25;;;18.16;40.58
48555;BME280;34336;48.270;16.716;2023-06-22T10:50:11;109325.25;;;18.16;42.14
48555;BME280;34336;48.270;16.716;2023-06-22T10:52:39;109325.25;;;18.16;40.70
48555;BME280;34336;48.270;16.716;2023-06-22T10:55:09;109325.25;;;18.16;40.37
48555;BME280;34336;48.270;16.716;2023-06-22T10:57:40;109325.25;;;18.16;41.31
48555;BME280;34336;48.270;16.716;2023-06-22T11:00:12;109325.25;;;18.16;40.36
48555;BME280;34336;48.270;16.716;2023-06-22T11:02:40;109325.25;;;18.16;39.42
48555;BME280;34336;48.270;16.716;2023-06-22T11:05:08;109325.25;;;18.16;41.71
48555;BME280;34336;48.270;16.716;2023-06-22T11:07:36;109325.25;;;18.16;39.56
48555;BME280;34336;48.270;16.716;2023-06-22T11:10:04;109325.25;;;18.16;40.26
48555;BME280;34336;48.270;16.716;2023-06-22T11:12:34;109325.25;;;18.16;39.20
48555;BME280;34336;48.270;16.716;2023-06-22T11:15:01;109325.25;;;18.16;39.68
48555;BME280;34336;48.270;16.716;2023-06-22T11:17:29;109325.25;;;18.16;42.08
48555;BME280;34336;48.270;16.716;2023-06-22T11:19:57;109325.25;;;18.16;39.77
48555;BME280;34336;48.270;16.716;2023-06-22T11:22:27;109325.25;;;18.16;38.74
48555;BME280;34336;48.270;16.716;2023-06-22T11:24:57;109325.25;;;18.16;40.74
48555;BME280;34336;48.270;16.716;2023-06-22T11:27:24;109325.25;;;18.16;41.16
48555;BME280;34336;48.270;16.716;2023-06-22T11:29:53;109325.25;;;18.16;38.60
48555;BME280;34336;48.270;16.716;2023-06-22T11:32:21;109325.25;;;18.16;40.54
48555;BME280;34336;48.270;16.716;2023-06-22T11:34:49;109325.25;;;18.16;39.93
48555;BME280;34336;48.270;16.716;2023-06-22T11:37:17;109325.25;;;18.16;41.61
48555;BME280;34336;48.270;16.716;2023-06-22T11:39:47;109325.25;;;18.16;39.26
48555;BME280;34336;48.270;16.716;2023-06-22T11:42:31;109325.25;;;18.16;40.48
48555;BME280;34336;48.270;16.716;2023-06-22T11:45:02;109325.25;;;18.16;41.08
48555;BME280;34336;48.270;16.716;2023-06-22T11:47:32;109325.25;;;18.16;40.93
48555;BME280;34336;48.270;16.716;2023-06-22T11:50:04;109325.25;;;18.16;40.36
48555;BME280;34336;48.270;16.716;2023-06-22T11:52:33;109325.25;;;18.16;40.48
48555;BME280;34336;48.270;16.716;2023-06-22T11:55:03;109325.25;;;18.16;40.18
48555;BME280;34336;48.270;16.716;2023-06-22T11:57:34;109325.25;;;18.16;41.40
48555;BME280;34336;48.270;16.716;2023-06-22T12:00:03;109325.25;;;18.16;40.47
48555;BME280;34336;48.270;16.716;2023-06-22T12:02:33;109325.25;;;18.16;40.92
48555;BME280;34336;48.270;16.716;2023-06-22T12:05:02;109325.25;;;18.16;38.78
48555;BME280;34336;48.270;16.716;2023-06-22T12:07:30;109325.25;;;18.16;39.26
48555;BME280;34336;48.270;16.716;2023-06-22T12:09:58;109325.25;;;18.16;39.12
48555;BME280;34336;48.270;16.716;2023-06-22T12:12:28;109325.25;;;18.16;39.76
48555;BME280;34336;48.270;16.716;2023-06-22T12:14:57;109325.25;;;18.16;41.68
48555;BME280;34336;48.270;16.716;2023-06-22T12:17:31;109325.25;;;18.16;40.10
48555;BME280;34336;48.270;16.716;2023-06-22T12:20:02;109325.25;;;18.16;41.35
48555;BME280;34336;48.270;16.716;2023-06-22T12:22:33;109325.25;;;18.16;39.92
48555;BME280;34336;48.270;16.716;2023-06-22T12:25:01;109325.25;;;18.16;40.81
48555;BME280;34336;48.270;16.716;2023-06-22T12:27:29;109325.25;;;18.16;39.92
48555;BME280;34336;48.270;16.716;2023-06-22T12:29:58;109325.25;;;18.16;40.19
48555;BME280;34336;48.270;16.716;2023-06-22T12:32:26;109325.25;;;18.16;40.65
48555;BME280;34336;48.270;16.716;2023-06-22T12:34:53;109325.25;;;18.16;41.21
48555;BME280;34336;48.270;16.716;2023-06-22T12:37:22;109325.25;;;18.16;41.35
48555;BME280;34336;48.270;16.716;2023-06-22T12:39:49;109325.25;;;18.16;41.13
48555;BME280;34336;48.270;16.716;2023-06-22T12:42:18;109325.25;;;18.16;41.19
48555;BME280;34336;48.270;16.716;2023-06-22T12:44:46;109325.25;;;18.16;42.32
48555;BME280;34336;48.270;16.716;2023-06-22T12:47:13;109325.25;;;18.16;42.11
48555;BME280;34336;48.270;16.716;2023-06-22T12:49:41;109325.25;;;18.16;41.79
48555;BME280;34336;48.270;16.716;2023-06-22T12:52:09;109325.25;;;18.16;41.90
48555;BME280;34336;48.270;16.716;2023-06-22T12:54:38;109325.25;;;18.16;40.85
48555;BME280;34336;48.270;16.716;2023-06-22T12:57:16;109325.25;;;18.16;41.27